Terminal Aerodrome Forecast
Issued by NWS

Home | Current Version | Previous Version | Text Only | Print | Product List | Glossary On
Versions: 1 2 3 4 5 6 7 8 9 10 11 12 13
000
FTUS43 KOAX 031134
TAFBFF
TAF
KBFF 031134Z 0312/0412 31005KT P6SM SCT120
     FM031800 06013G21KT P6SM SCT070
     FM040200 06008KT P6SM BKN070=

USA.gov is the U.S. government's official web portal to all federal, state and local government web resources and services.